sensor_id;sensor_type;location;lat;lon;timestamp;P1;durP1;ratioP1;P2;durP2;ratioP2
15258;SDS011;34462;51.368;12.364;2023-05-15T00:00:58;9.43;;;8.63;;
15258;SDS011;34462;51.368;12.364;2023-05-15T00:03:26;9.27;;;8.33;;
15258;SDS011;34462;51.368;12.364;2023-05-15T00:05:54;9.30;;;8.40;;
15258;SDS011;34462;51.368;12.364;2023-05-15T00:08:23;8.70;;;7.90;;
15258;SDS011;34462;51.368;12.364;2023-05-15T00:10:52;10.63;;;8.47;;
15258;SDS011;34462;51.368;12.364;2023-05-15T00:13:27;9.37;;;8.47;;
15258;SDS011;34462;51.368;12.364;2023-05-15T00:15:55;9.13;;;8.23;;
15258;SDS011;34462;51.368;12.364;2023-05-15T00:18:24;9.87;;;8.97;;
15258;SDS011;34462;51.368;12.364;2023-05-15T00:20:52;9.10;;;8.30;;
15258;SDS011;34462;51.368;12.364;2023-05-15T00:23:20;9.30;;;8.40;;
15258;SDS011;34462;51.368;12.364;2023-05-15T00:25:48;9.50;;;8.60;;
15258;SDS011;34462;51.368;12.364;2023-05-15T00:28:18;9.57;;;8.67;;
15258;SDS011;34462;51.368;12.364;2023-05-15T00:30:46;8.77;;;7.97;;
15258;SDS011;34462;51.368;12.364;2023-05-15T00:33:14;9.23;;;8.33;;
15258;SDS011;34462;51.368;12.364;2023-05-15T00:35:43;9.30;;;8.40;;
15258;SDS011;34462;51.368;12.364;2023-05-15T00:38:11;8.80;;;8.00;;
15258;SDS011;34462;51.368;12.364;2023-05-15T00:40:39;8.50;;;7.77;;
15258;SDS011;34462;51.368;12.364;2023-05-15T00:43:10;9.33;;;8.43;;
15258;SDS011;34462;51.368;12.364;2023-05-15T00:45:40;9.57;;;8.57;;
15258;SDS011;34462;51.368;12.364;2023-05-15T00:48:09;9.70;;;8.80;;
15258;SDS011;34462;51.368;12.364;2023-05-15T00:50:39;9.30;;;8.40;;
15258;SDS011;34462;51.368;12.364;2023-05-15T00:53:08;9.47;;;8.57;;
15258;SDS011;34462;51.368;12.364;2023-05-15T00:55:37;9.70;;;8.70;;
15258;SDS011;34462;51.368;12.364;2023-05-15T00:58:08;9.53;;;8.63;;
15258;SDS011;34462;51.368;12.364;2023-05-15T01:00:37;9.67;;;8.63;;
15258;SDS011;34462;51.368;12.364;2023-05-15T01:03:07;9.93;;;8.97;;
15258;SDS011;34462;51.368;12.364;2023-05-15T01:05:35;10.07;;;9.07;;
15258;SDS011;34462;51.368;12.364;2023-05-15T01:08:10;9.60;;;8.43;;
15258;SDS011;34462;51.368;12.364;2023-05-15T01:10:47;10.30;;;8.90;;
15258;SDS011;34462;51.368;12.364;2023-05-15T01:13:18;9.30;;;8.50;;
15258;SDS011;34462;51.368;12.364;2023-05-15T01:15:50;11.57;;;8.67;;
15258;SDS011;34462;51.368;12.364;2023-05-15T01:18:18;9.93;;;8.93;;
15258;SDS011;34462;51.368;12.364;2023-05-15T01:20:49;10.43;;;9.43;;
15258;SDS011;34462;51.368;12.364;2023-05-15T01:23:50;10.13;;;9.13;;
15258;SDS011;34462;51.368;12.364;2023-05-15T01:26:49;9.93;;;8.73;;
15258;SDS011;34462;51.368;12.364;2023-05-15T01:29:43;10.20;;;9.30;;
15258;SDS011;34462;51.368;12.364;2023-05-15T01:32:28;10.80;;;9.70;;
15258;SDS011;34462;51.368;12.364;2023-05-15T01:35:08;10.50;;;9.50;;
15258;SDS011;34462;51.368;12.364;2023-05-15T01:37:44;10.33;;;9.33;;
15258;SDS011;34462;51.368;12.364;2023-05-15T01:40:17;10.43;;;9.33;;
15258;SDS011;34462;51.368;12.364;2023-05-15T01:42:54;10.47;;;9.47;;
15258;SDS011;34462;51.368;12.364;2023-05-15T01:45:30;10.93;;;9.83;;
15258;SDS011;34462;51.368;12.364;2023-05-15T01:48:00;10.40;;;9.13;;
15258;SDS011;34462;51.368;12.364;2023-05-15T01:50:34;9.90;;;9.00;;
15258;SDS011;34462;51.368;12.364;2023-05-15T01:53:06;10.57;;;9.50;;
15258;SDS011;34462;51.368;12.364;2023-05-15T01:55:37;10.13;;;9.13;;
15258;SDS011;34462;51.368;12.364;2023-05-15T01:58:08;10.83;;;9.70;;
15258;SDS011;34462;51.368;12.364;2023-05-15T02:00:37;11.10;;;10.00;;
15258;SDS011;34462;51.368;12.364;2023-05-15T02:03:07;11.03;;;9.93;;
15258;SDS011;34462;51.368;12.364;2023-05-15T02:05:37;10.57;;;9.53;;
15258;SDS011;34462;51.368;12.364;2023-05-15T02:08:05;11.30;;;10.20;;
15258;SDS011;34462;51.368;12.364;2023-05-15T02:10:34;12.10;;;10.90;;
15258;SDS011;34462;51.368;12.364;2023-05-15T02:13:03;12.77;;;11.03;;
15258;SDS011;34462;51.368;12.364;2023-05-15T02:15:34;11.53;;;10.43;;
15258;SDS011;34462;51.368;12.364;2023-05-15T02:18:04;12.77;;;11.57;;
15258;SDS011;34462;51.368;12.364;2023-05-15T02:20:32;12.60;;;11.30;;
15258;SDS011;34462;51.368;12.364;2023-05-15T02:23:01;13.87;;;11.83;;
15258;SDS011;34462;51.368;12.364;2023-05-15T02:25:31;12.93;;;11.70;;
15258;SDS011;34462;51.368;12.364;2023-05-15T02:28:16;12.40;;;11.17;;
15258;SDS011;34462;51.368;12.364;2023-05-15T02:30:56;12.17;;;10.97;;
15258;SDS011;34462;51.368;12.364;2023-05-15T02:33:37;12.90;;;11.53;;
15258;SDS011;34462;51.368;12.364;2023-05-15T02:36:19;13.23;;;11.93;;
15258;SDS011;34462;51.368;12.364;2023-05-15T02:38:54;14.50;;;12.27;;
15258;SDS011;34462;51.368;12.364;2023-05-15T02:41:25;13.53;;;12.23;;
15258;SDS011;34462;51.368;12.364;2023-05-15T02:43:54;13.20;;;11.77;;
15258;SDS011;34462;51.368;12.364;2023-05-15T02:46:26;14.30;;;12.20;;
15258;SDS011;34462;51.368;12.364;2023-05-15T02:48:56;13.10;;;11.80;;
15258;SDS011;34462;51.368;12.364;2023-05-15T02:51:25;14.23;;;12.80;;
15258;SDS011;34462;51.368;12.364;2023-05-15T02:53:54;13.47;;;11.93;;
15258;SDS011;34462;51.368;12.364;2023-05-15T02:56:24;14.23;;;11.90;;
15258;SDS011;34462;51.368;12.364;2023-05-15T02:58:52;13.47;;;12.17;;
15258;SDS011;34462;51.368;12.364;2023-05-15T03:01:20;13.43;;;12.13;;
15258;SDS011;34462;51.368;12.364;2023-05-15T03:03:50;13.47;;;12.17;;
15258;SDS011;34462;51.368;12.364;2023-05-15T03:06:18;13.63;;;12.20;;
15258;SDS011;34462;51.368;12.364;2023-05-15T03:08:47;13.53;;;12.17;;
15258;SDS011;34462;51.368;12.364;2023-05-15T03:11:15;13.50;;;12.10;;
15258;SDS011;34462;51.368;12.364;2023-05-15T03:13:44;13.60;;;12.30;;
15258;SDS011;34462;51.368;12.364;2023-05-15T03:16:12;13.70;;;12.40;;
15258;SDS011;34462;51.368;12.364;2023-05-15T03:18:40;13.07;;;11.77;;
15258;SDS011;34462;51.368;12.364;2023-05-15T03:21:10;14.03;;;12.50;;
15258;SDS011;34462;51.368;12.364;2023-05-15T03:23:39;13.23;;;11.83;;
15258;SDS011;34462;51.368;12.364;2023-05-15T03:26:07;14.13;;;12.27;;
15258;SDS011;34462;51.368;12.364;2023-05-15T03:28:35;13.47;;;12.17;;
15258;SDS011;34462;51.368;12.364;2023-05-15T03:31:03;14.30;;;12.90;;
15258;SDS011;34462;51.368;12.364;2023-05-15T03:33:33;11.80;;;10.67;;
15258;SDS011;34462;51.368;12.364;2023-05-15T03:36:01;13.23;;;11.83;;
15258;SDS011;34462;51.368;12.364;2023-05-15T03:38:31;15.33;;;12.50;;
15258;SDS011;34462;51.368;12.364;2023-05-15T03:40:59;12.93;;;11.63;;
15258;SDS011;34462;51.368;12.364;2023-05-15T03:43:28;12.90;;;11.27;;
15258;SDS011;34462;51.368;12.364;2023-05-15T03:45:57;13.43;;;12.13;;
15258;SDS011;34462;51.368;12.364;2023-05-15T03:48:25;13.80;;;12.40;;
15258;SDS011;34462;51.368;12.364;2023-05-15T03:50:53;13.87;;;12.33;;
15258;SDS011;34462;51.368;12.364;2023-05-15T03:53:22;13.40;;;12.03;;
15258;SDS011;34462;51.368;12.364;2023-05-15T03:55:52;13.30;;;12.00;;
15258;SDS011;34462;51.368;12.364;2023-05-15T03:58:20;14.40;;;11.20;;
15258;SDS011;34462;51.368;12.364;2023-05-15T04:00:48;13.53;;;12.23;;
15258;SDS011;34462;51.368;12.364;2023-05-15T04:03:16;13.23;;;11.83;;
15258;SDS011;34462;51.368;12.364;2023-05-15T04:05:45;13.40;;;12.00;;
15258;SDS011;34462;51.368;12.364;2023-05-15T04:08:15;13.13;;;11.80;;
15258;SDS011;34462;51.368;12.364;2023-05-15T04:10:43;13.13;;;11.87;;
15258;SDS011;34462;51.368;12.364;2023-05-15T04:13:12;12.63;;;11.43;;
15258;SDS011;34462;51.368;12.364;2023-05-15T04:15:41;12.80;;;11.60;;
15258;SDS011;34462;51.368;12.364;2023-05-15T04:18:09;13.57;;;12.17;;
15258;SDS011;34462;51.368;12.364;2023-05-15T04:20:37;14.40;;;11.50;;
15258;SDS011;34462;51.368;12.364;2023-05-15T04:23:05;13.03;;;11.83;;
15258;SDS011;34462;51.368;12.364;2023-05-15T04:25:33;13.33;;;11.93;;
15258;SDS011;34462;51.368;12.364;2023-05-15T04:28:02;12.80;;;11.50;;
15258;SDS011;34462;51.368;12.364;2023-05-15T04:30:33;13.33;;;11.93;;
15258;SDS011;34462;51.368;12.364;2023-05-15T04:33:01;12.20;;;11.00;;
15258;SDS011;34462;51.368;12.364;2023-05-15T04:35:29;12.43;;;11.23;;
15258;SDS011;34462;51.368;12.364;2023-05-15T04:37:57;12.93;;;11.63;;
15258;SDS011;34462;51.368;12.364;2023-05-15T04:40:25;12.53;;;11.23;;
15258;SDS011;34462;51.368;12.364;2023-05-15T04:42:54;12.43;;;11.23;;
15258;SDS011;34462;51.368;12.364;2023-05-15T04:45:22;12.47;;;11.07;;
15258;SDS011;34462;51.368;12.364;2023-05-15T04:47:52;11.67;;;10.57;;
15258;SDS011;34462;51.368;12.364;2023-05-15T04:50:20;11.87;;;10.47;;
15258;SDS011;34462;51.368;12.364;2023-05-15T04:52:49;12.80;;;11.07;;
15258;SDS011;34462;51.368;12.364;2023-05-15T04:55:18;12.07;;;10.97;;
15258;SDS011;34462;51.368;12.364;2023-05-15T04:57:46;11.77;;;10.57;;
15258;SDS011;34462;51.368;12.364;2023-05-15T05:00:14;12.07;;;10.87;;
15258;SDS011;34462;51.368;12.364;2023-05-15T05:02:43;11.83;;;10.70;;
15258;SDS011;34462;51.368;12.364;2023-05-15T05:05:12;11.97;;;10.80;;
15258;SDS011;34462;51.368;12.364;2023-05-15T05:07:41;11.37;;;10.37;;
15258;SDS011;34462;51.368;12.364;2023-05-15T05:10:11;12.93;;;11.63;;
15258;SDS011;34462;51.368;12.364;2023-05-15T05:12:39;12.73;;;11.20;;
15258;SDS011;34462;51.368;12.364;2023-05-15T05:15:08;13.00;;;10.83;;
15258;SDS011;34462;51.368;12.364;2023-05-15T05:17:37;10.83;;;9.83;;
15258;SDS011;34462;51.368;12.364;2023-05-15T05:20:05;9.90;;;9.00;;
15258;SDS011;34462;51.368;12.364;2023-05-15T05:22:39;11.40;;;10.30;;
15258;SDS011;34462;51.368;12.364;2023-05-15T05:25:08;11.83;;;10.73;;
15258;SDS011;34462;51.368;12.364;2023-05-15T05:27:36;12.00;;;10.90;;
15258;SDS011;34462;51.368;12.364;2023-05-15T05:30:05;12.77;;;11.17;;
15258;SDS011;34462;51.368;12.364;2023-05-15T05:32:35;11.77;;;10.68;;
15258;SDS011;34462;51.368;12.364;2023-05-15T05:35:03;11.77;;;10.33;;
15258;SDS011;34462;51.368;12.364;2023-05-15T05:37:32;11.40;;;10.20;;
15258;SDS011;34462;51.368;12.364;2023-05-15T05:40:01;11.25;;;10.25;;
15258;SDS011;34462;51.368;12.364;2023-05-15T05:42:31;13.80;;;11.40;;
15258;SDS011;34462;51.368;12.364;2023-05-15T05:45:00;12.67;;;11.23;;
15258;SDS011;34462;51.368;12.364;2023-05-15T05:47:28;12.10;;;10.90;;
15258;SDS011;34462;51.368;12.364;2023-05-15T05:49:56;12.17;;;10.47;;
15258;SDS011;34462;51.368;12.364;2023-05-15T05:52:24;11.83;;;10.63;;
15258;SDS011;34462;51.368;12.364;2023-05-15T05:54:54;11.88;;;10.55;;
15258;SDS011;34462;51.368;12.364;2023-05-15T05:57:23;11.90;;;10.70;;
15258;SDS011;34462;51.368;12.364;2023-05-15T05:59:52;11.68;;;10.50;;
15258;SDS011;34462;51.368;12.364;2023-05-15T06:02:20;11.63;;;10.43;;
15258;SDS011;34462;51.368;12.364;2023-05-15T06:04:48;11.13;;;10.10;;
15258;SDS011;34462;51.368;12.364;2023-05-15T06:07:16;12.35;;;10.00;;
15258;SDS011;34462;51.368;12.364;2023-05-15T06:09:44;12.52;;;10.95;;
15258;SDS011;34462;51.368;12.364;2023-05-15T06:12:13;11.07;;;10.07;;
15258;SDS011;34462;51.368;12.364;2023-05-15T06:14:43;11.68;;;9.70;;
15258;SDS011;34462;51.368;12.364;2023-05-15T06:17:11;10.88;;;9.75;;
15258;SDS011;34462;51.368;12.364;2023-05-15T06:19:40;12.07;;;10.98;;
15258;SDS011;34462;51.368;12.364;2023-05-15T06:22:08;11.70;;;10.50;;
15258;SDS011;34462;51.368;12.364;2023-05-15T06:24:36;11.82;;;10.68;;
15258;SDS011;34462;51.368;12.364;2023-05-15T06:27:05;11.90;;;10.75;;
15258;SDS011;34462;51.368;12.364;2023-05-15T06:29:33;12.27;;;10.93;;
15258;SDS011;34462;51.368;12.364;2023-05-15T06:32:03;12.52;;;11.20;;
15258;SDS011;34462;51.368;12.364;2023-05-15T06:34:32;11.82;;;10.63;;
15258;SDS011;34462;51.368;12.364;2023-05-15T06:37:00;10.98;;;9.88;;
15258;SDS011;34462;51.368;12.364;2023-05-15T06:39:28;11.73;;;10.57;;
15258;SDS011;34462;51.368;12.364;2023-05-15T06:41:56;11.30;;;10.13;;
15258;SDS011;34462;51.368;12.364;2023-05-15T06:44:26;11.23;;;10.20;;
15258;SDS011;34462;51.368;12.364;2023-05-15T06:46:56;11.10;;;10.10;;
15258;SDS011;34462;51.368;12.364;2023-05-15T06:49:26;11.68;;;10.68;;
15258;SDS011;34462;51.368;12.364;2023-05-15T06:51:55;13.65;;;12.35;;
15258;SDS011;34462;51.368;12.364;2023-05-15T06:54:24;14.18;;;12.13;;
15258;SDS011;34462;51.368;12.364;2023-05-15T06:56:52;11.98;;;10.85;;
15258;SDS011;34462;51.368;12.364;2023-05-15T06:59:20;12.70;;;11.50;;
15258;SDS011;34462;51.368;12.364;2023-05-15T07:01:48;12.07;;;10.93;;
15258;SDS011;34462;51.368;12.364;2023-05-15T07:04:16;13.07;;;11.77;;
15258;SDS011;34462;51.368;12.364;2023-05-15T07:06:46;14.13;;;11.60;;
15258;SDS011;34462;51.368;12.364;2023-05-15T07:09:14;12.50;;;11.20;;
15258;SDS011;34462;51.368;12.364;2023-05-15T07:11:42;13.60;;;11.85;;
15258;SDS011;34462;51.368;12.364;2023-05-15T07:14:10;11.10;;;10.07;;
15258;SDS011;34462;51.368;12.364;2023-05-15T07:16:38;12.95;;;11.80;;
15258;SDS011;34462;51.368;12.364;2023-05-15T07:19:07;12.35;;;11.25;;
15258;SDS011;34462;51.368;12.364;2023-05-15T07:21:35;12.10;;;10.90;;
15258;SDS011;34462;51.368;12.364;2023-05-15T07:24:06;12.38;;;11.25;;
15258;SDS011;34462;51.368;12.364;2023-05-15T07:26:35;15.05;;;11.50;;
15258;SDS011;34462;51.368;12.364;2023-05-15T07:29:22;12.25;;;11.15;;
15258;SDS011;34462;51.368;12.364;2023-05-15T07:31:50;11.77;;;10.75;;
15258;SDS011;34462;51.368;12.364;2023-05-15T07:34:19;11.05;;;10.00;;
15258;SDS011;34462;51.368;12.364;2023-05-15T07:36:47;11.32;;;9.73;;
15258;SDS011;34462;51.368;12.364;2023-05-15T07:39:17;11.52;;;10.05;;
15258;SDS011;34462;51.368;12.364;2023-05-15T07:41:45;11.15;;;10.15;;
15258;SDS011;34462;51.368;12.364;2023-05-15T07:44:13;10.93;;;9.93;;
15258;SDS011;34462;51.368;12.364;2023-05-15T07:46:41;11.25;;;10.25;;
15258;SDS011;34462;51.368;12.364;2023-05-15T07:49:10;11.07;;;10.07;;
15258;SDS011;34462;51.368;12.364;2023-05-15T07:51:39;11.13;;;10.07;;
15258;SDS011;34462;51.368;12.364;2023-05-15T07:54:07;10.27;;;9.38;;
15258;SDS011;34462;51.368;12.364;2023-05-15T07:56:37;9.88;;;9.07;;
15258;SDS011;34462;51.368;12.364;2023-05-15T07:59:06;10.15;;;9.25;;
15258;SDS011;34462;51.368;12.364;2023-05-15T08:01:35;9.00;;;8.20;;
15258;SDS011;34462;51.368;12.364;2023-05-15T08:04:04;10.55;;;9.60;;
15258;SDS011;34462;51.368;12.364;2023-05-15T08:06:34;10.63;;;8.63;;
15258;SDS011;34462;51.368;12.364;2023-05-15T08:09:04;8.77;;;7.97;;
15258;SDS011;34462;51.368;12.364;2023-05-15T08:11:32;10.45;;;9.55;;
15258;SDS011;34462;51.368;12.364;2023-05-15T08:14:02;10.32;;;9.50;;
15258;SDS011;34462;51.368;12.364;2023-05-15T08:16:30;9.77;;;8.77;;
15258;SDS011;34462;51.368;12.364;2023-05-15T08:18:59;10.52;;;8.05;;
15258;SDS011;34462;51.368;12.364;2023-05-15T08:21:30;9.20;;;8.25;;
15258;SDS011;34462;51.368;12.364;2023-05-15T08:23:58;8.90;;;8.07;;
15258;SDS011;34462;51.368;12.364;2023-05-15T08:26:27;7.65;;;6.97;;
15258;SDS011;34462;51.368;12.364;2023-05-15T08:28:55;7.22;;;6.63;;
15258;SDS011;34462;51.368;12.364;2023-05-15T08:31:24;6.65;;;5.90;;
15258;SDS011;34462;51.368;12.364;2023-05-15T08:33:52;7.57;;;6.65;;
15258;SDS011;34462;51.368;12.364;2023-05-15T08:36:21;6.82;;;5.82;;
15258;SDS011;34462;51.368;12.364;2023-05-15T08:38:49;6.20;;;5.70;;
15258;SDS011;34462;51.368;12.364;2023-05-15T08:41:19;5.97;;;5.47;;
15258;SDS011;34462;51.368;12.364;2023-05-15T08:44:06;5.28;;;4.80;;
15258;SDS011;34462;51.368;12.364;2023-05-15T08:46:37;5.13;;;4.72;;
15258;SDS011;34462;51.368;12.364;2023-05-15T08:49:08;6.03;;;5.53;;
15258;SDS011;34462;51.368;12.364;2023-05-15T08:51:46;5.60;;;5.10;;
15258;SDS011;34462;51.368;12.364;2023-05-15T08:54:14;6.00;;;5.50;;
15258;SDS011;34462;51.368;12.364;2023-05-15T08:56:43;7.82;;;6.38;;
15258;SDS011;34462;51.368;12.364;2023-05-15T08:59:11;6.43;;;5.93;;
15258;SDS011;34462;51.368;12.364;2023-05-15T09:01:41;7.65;;;6.32;;
15258;SDS011;34462;51.368;12.364;2023-05-15T09:04:09;5.68;;;5.13;;
15258;SDS011;34462;51.368;12.364;2023-05-15T09:06:38;5.97;;;5.18;;
15258;SDS011;34462;51.368;12.364;2023-05-15T09:09:09;4.72;;;4.32;;
15258;SDS011;34462;51.368;12.364;2023-05-15T09:11:39;5.50;;;5.10;;
15258;SDS011;34462;51.368;12.364;2023-05-15T09:14:10;6.60;;;5.43;;
15258;SDS011;34462;51.368;12.364;2023-05-15T09:16:39;6.85;;;6.25;;
15258;SDS011;34462;51.368;12.364;2023-05-15T09:19:08;6.50;;;5.82;;
15258;SDS011;34462;51.368;12.364;2023-05-15T09:21:38;6.80;;;5.50;;
15258;SDS011;34462;51.368;12.364;2023-05-15T09:24:16;7.13;;;6.40;;
15258;SDS011;34462;51.368;12.364;2023-05-15T09:26:59;6.30;;;5.70;;
15258;SDS011;34462;51.368;12.364;2023-05-15T09:29:29;6.80;;;6.20;;
15258;SDS011;34462;51.368;12.364;2023-05-15T09:32:02;7.28;;;6.60;;
15258;SDS011;34462;51.368;12.364;2023-05-15T09:34:34;6.95;;;6.30;;
15258;SDS011;34462;51.368;12.364;2023-05-15T09:37:05;6.93;;;6.28;;
15258;SDS011;34462;51.368;12.364;2023-05-15T09:39:39;6.30;;;5.70;;
15258;SDS011;34462;51.368;12.364;2023-05-15T09:42:09;5.75;;;5.20;;
15258;SDS011;34462;51.368;12.364;2023-05-15T09:44:39;5.13;;;4.72;;
15258;SDS011;34462;51.368;12.364;2023-05-15T09:47:10;4.80;;;4.35;;
15258;SDS011;34462;51.368;12.364;2023-05-15T09:49:42;5.28;;;4.78;;
15258;SDS011;34462;51.368;12.364;2023-05-15T09:52:12;7.13;;;5.53;;
15258;SDS011;34462;51.368;12.364;2023-05-15T09:54:43;5.97;;;5.38;;
15258;SDS011;34462;51.368;12.364;2023-05-15T09:57:15;5.22;;;4.75;;
15258;SDS011;34462;51.368;12.364;2023-05-15T09:59:48;7.05;;;5.28;;
15258;SDS011;34462;51.368;12.364;2023-05-15T10:02:22;6.53;;;5.60;;
15258;SDS011;34462;51.368;12.364;2023-05-15T10:04:53;7.10;;;5.85;;
15258;SDS011;34462;51.368;12.364;2023-05-15T10:07:28;5.38;;;4.88;;
15258;SDS011;34462;51.368;12.364;2023-05-15T10:09:58;6.13;;;5.45;;
15258;SDS011;34462;51.368;12.364;2023-05-15T10:12:28;5.88;;;5.38;;
15258;SDS011;34462;51.368;12.364;2023-05-15T10:14:58;6.28;;;5.15;;
15258;SDS011;34462;51.368;12.364;2023-05-15T10:17:29;8.80;;;5.40;;
15258;SDS011;34462;51.368;12.364;2023-05-15T10:20:01;6.45;;;5.05;;
15258;SDS011;34462;51.368;12.364;2023-05-15T10:22:34;4.90;;;4.50;;
15258;SDS011;34462;51.368;12.364;2023-05-15T10:25:07;5.78;;;4.88;;
15258;SDS011;34462;51.368;12.364;2023-05-15T10:27:45;6.43;;;5.55;;
15258;SDS011;34462;51.368;12.364;2023-05-15T10:30:16;4.97;;;4.57;;
15258;SDS011;34462;51.368;12.364;2023-05-15T10:32:47;5.10;;;4.45;;
15258;SDS011;34462;51.368;12.364;2023-05-15T10:35:16;5.32;;;4.93;;
15258;SDS011;34462;51.368;12.364;2023-05-15T10:37:46;5.07;;;4.57;;
15258;SDS011;34462;51.368;12.364;2023-05-15T10:40:15;4.75;;;4.35;;
15258;SDS011;34462;51.368;12.364;2023-05-15T10:42:44;5.35;;;4.95;;
15258;SDS011;34462;51.368;12.364;2023-05-15T10:45:13;5.72;;;5.22;;
15258;SDS011;34462;51.368;12.364;2023-05-15T10:47:42;5.65;;;4.50;;
15258;SDS011;34462;51.368;12.364;2023-05-15T10:50:14;4.63;;;4.22;;
15258;SDS011;34462;51.368;12.364;2023-05-15T10:52:42;4.50;;;3.80;;
15258;SDS011;34462;51.368;12.364;2023-05-15T10:55:12;6.25;;;4.40;;
15258;SDS011;34462;51.368;12.364;2023-05-15T10:57:43;4.18;;;3.88;;
15258;SDS011;34462;51.368;12.364;2023-05-15T11:00:23;4.68;;;4.28;;
15258;SDS011;34462;51.368;12.364;2023-05-15T11:02:53;5.30;;;4.50;;
15258;SDS011;34462;51.368;12.364;2023-05-15T11:05:25;4.88;;;4.47;;
15258;SDS011;34462;51.368;12.364;2023-05-15T11:10:52;5.40;;;5.00;;
15258;SDS011;34462;51.368;12.364;2023-05-15T11:13:21;5.50;;;5.00;;
15258;SDS011;34462;51.368;12.364;2023-05-15T11:15:49;5.55;;;5.00;;
15258;SDS011;34462;51.368;12.364;2023-05-15T11:18:18;6.53;;;5.78;;
15258;SDS011;34462;51.368;12.364;2023-05-15T11:21:06;6.65;;;4.93;;
15258;SDS011;34462;51.368;12.364;2023-05-15T11:23:37;6.90;;;6.18;;
15258;SDS011;34462;51.368;12.364;2023-05-15T11:26:07;6.82;;;6.13;;
15258;SDS011;34462;51.368;12.364;2023-05-15T11:28:41;7.85;;;5.50;;
15258;SDS011;34462;51.368;12.364;2023-05-15T11:31:10;8.65;;;5.90;;
15258;SDS011;34462;51.368;12.364;2023-05-15T11:33:39;6.07;;;5.57;;
15258;SDS011;34462;51.368;12.364;2023-05-15T11:36:09;7.70;;;6.40;;
15258;SDS011;34462;51.368;12.364;2023-05-15T11:38:40;6.43;;;5.82;;
15258;SDS011;34462;51.368;12.364;2023-05-15T11:41:17;6.35;;;5.65;;
15258;SDS011;34462;51.368;12.364;2023-05-15T11:43:46;8.73;;;6.40;;
15258;SDS011;34462;51.368;12.364;2023-05-15T11:46:15;6.10;;;5.50;;
15258;SDS011;34462;51.368;12.364;2023-05-15T11:48:44;7.82;;;6.13;;
15258;SDS011;34462;51.368;12.364;2023-05-15T11:51:16;7.60;;;6.50;;
15258;SDS011;34462;51.368;12.364;2023-05-15T11:53:48;10.95;;;6.47;;
15258;SDS011;34462;51.368;12.364;2023-05-15T11:56:18;6.85;;;6.22;;
15258;SDS011;34462;51.368;12.364;2023-05-15T11:58:48;7.10;;;6.40;;
15258;SDS011;34462;51.368;12.364;2023-05-15T12:01:17;11.20;;;6.65;;
15258;SDS011;34462;51.368;12.364;2023-05-15T12:03:46;7.05;;;6.25;;
15258;SDS011;34462;51.368;12.364;2023-05-15T12:06:17;6.22;;;5.63;;
15258;SDS011;34462;51.368;12.364;2023-05-15T12:08:49;7.85;;;6.05;;
15258;SDS011;34462;51.368;12.364;2023-05-15T12:11:20;8.52;;;6.03;;
15258;SDS011;34462;51.368;12.364;2023-05-15T12:13:50;8.00;;;6.43;;
15258;SDS011;34462;51.368;12.364;2023-05-15T12:16:22;8.30;;;6.63;;
15258;SDS011;34462;51.368;12.364;2023-05-15T12:18:52;8.18;;;6.68;;
15258;SDS011;34462;51.368;12.364;2023-05-15T12:21:21;7.65;;;6.60;;
15258;SDS011;34462;51.368;12.364;2023-05-15T12:23:50;6.93;;;6.43;;
15258;SDS011;34462;51.368;12.364;2023-05-15T12:26:32;6.28;;;5.68;;
15258;SDS011;34462;51.368;12.364;2023-05-15T12:29:01;6.28;;;5.65;;
15258;SDS011;34462;51.368;12.364;2023-05-15T12:31:32;7.53;;;5.50;;
15258;SDS011;34462;51.368;12.364;2023-05-15T12:34:01;9.27;;;5.55;;
15258;SDS011;34462;51.368;12.364;2023-05-15T12:36:31;5.32;;;4.82;;
15258;SDS011;34462;51.368;12.364;2023-05-15T12:39:03;6.45;;;5.47;;
15258;SDS011;34462;51.368;12.364;2023-05-15T12:41:35;6.10;;;5.50;;
15258;SDS011;34462;51.368;12.364;2023-05-15T12:44:04;6.25;;;5.60;;
15258;SDS011;34462;51.368;12.364;2023-05-15T12:46:32;7.65;;;5.05;;
15258;SDS011;34462;51.368;12.364;2023-05-15T12:49:01;5.72;;;4.80;;
15258;SDS011;34462;51.368;12.364;2023-05-15T12:51:29;6.25;;;4.78;;
15258;SDS011;34462;51.368;12.364;2023-05-15T12:53:59;5.88;;;5.10;;
15258;SDS011;34462;51.368;12.364;2023-05-15T12:56:29;6.10;;;4.80;;
15258;SDS011;34462;51.368;12.364;2023-05-15T12:58:57;4.90;;;4.32;;
15258;SDS011;34462;51.368;12.364;2023-05-15T13:01:26;5.85;;;4.55;;
15258;SDS011;34462;51.368;12.364;2023-05-15T13:03:56;6.63;;;5.25;;
15258;SDS011;34462;51.368;12.364;2023-05-15T13:06:24;7.60;;;4.53;;
15258;SDS011;34462;51.368;12.364;2023-05-15T13:09:12;5.93;;;5.32;;
15258;SDS011;34462;51.368;12.364;2023-05-15T13:11:42;6.80;;;4.97;;
15258;SDS011;34462;51.368;12.364;2023-05-15T13:14:12;5.00;;;4.45;;
15258;SDS011;34462;51.368;12.364;2023-05-15T13:16:43;7.57;;;5.00;;
15258;SDS011;34462;51.368;12.364;2023-05-15T13:19:13;6.32;;;5.72;;
15258;SDS011;34462;51.368;12.364;2023-05-15T13:21:42;6.53;;;5.60;;
15258;SDS011;34462;51.368;12.364;2023-05-15T13:24:12;6.28;;;4.90;;
15258;SDS011;34462;51.368;12.364;2023-05-15T13:26:41;6.20;;;5.05;;
15258;SDS011;34462;51.368;12.364;2023-05-15T13:29:09;6.65;;;5.60;;
15258;SDS011;34462;51.368;12.364;2023-05-15T13:31:37;5.72;;;5.18;;
15258;SDS011;34462;51.368;12.364;2023-05-15T13:34:05;9.68;;;5.93;;
15258;SDS011;34462;51.368;12.364;2023-05-15T13:36:34;7.65;;;5.63;;
15258;SDS011;34462;51.368;12.364;2023-05-15T13:39:03;6.90;;;4.97;;
15258;SDS011;34462;51.368;12.364;2023-05-15T13:41:34;8.48;;;5.40;;
15258;SDS011;34462;51.368;12.364;2023-05-15T13:44:03;6.78;;;5.60;;
15258;SDS011;34462;51.368;12.364;2023-05-15T13:46:31;8.60;;;6.20;;
15258;SDS011;34462;51.368;12.364;2023-05-15T13:48:59;6.22;;;5.68;;
15258;SDS011;34462;51.368;12.364;2023-05-15T13:51:27;6.82;;;5.95;;
15258;SDS011;34462;51.368;12.364;2023-05-15T13:53:56;5.60;;;4.68;;
15258;SDS011;34462;51.368;12.364;2023-05-15T13:56:24;5.95;;;4.90;;
15258;SDS011;34462;51.368;12.364;2023-05-15T13:58:54;5.30;;;4.80;;
15258;SDS011;34462;51.368;12.364;2023-05-15T14:01:22;4.72;;;4.32;;
15258;SDS011;34462;51.368;12.364;2023-05-15T14:03:50;5.30;;;4.80;;
15258;SDS011;34462;51.368;12.364;2023-05-15T14:06:19;5.00;;;4.60;;
15258;SDS011;34462;51.368;12.364;2023-05-15T14:08:47;5.30;;;4.80;;
15258;SDS011;34462;51.368;12.364;2023-05-15T14:11:15;5.03;;;4.63;;
15258;SDS011;34462;51.368;12.364;2023-05-15T14:13:43;4.80;;;4.40;;
15258;SDS011;34462;51.368;12.364;2023-05-15T14:16:13;5.05;;;4.65;;
15258;SDS011;34462;51.368;12.364;2023-05-15T14:18:42;4.53;;;3.80;;
15258;SDS011;34462;51.368;12.364;2023-05-15T14:21:10;4.55;;;3.97;;
15258;SDS011;34462;51.368;12.364;2023-05-15T14:23:38;4.25;;;3.83;;
15258;SDS011;34462;51.368;12.364;2023-05-15T14:26:07;3.70;;;3.40;;
15258;SDS011;34462;51.368;12.364;2023-05-15T14:28:35;3.50;;;3.30;;
15258;SDS011;34462;51.368;12.364;2023-05-15T14:31:03;4.18;;;3.80;;
15258;SDS011;34462;51.368;12.364;2023-05-15T14:33:33;5.60;;;3.60;;
15258;SDS011;34462;51.368;12.364;2023-05-15T14:36:01;4.57;;;3.38;;
15258;SDS011;34462;51.368;12.364;2023-05-15T14:38:30;4.00;;;3.38;;
15258;SDS011;34462;51.368;12.364;2023-05-15T14:40:58;4.07;;;3.67;;
15258;SDS011;34462;51.368;12.364;2023-05-15T14:43:26;4.00;;;3.63;;